Time;durP1;ratioP1;P1;durP2;ratioP2;P2;SDS_P1;SDS_P2;PMS_P1;PMS_P2;Temp;Humidity;BMP_temperature;BMP_pressure;BME280_temperature;BME280_humidity;BME280_pressure;Samples;Min_cycle;Max_cycle;Signal;HPM_P1;HPM_P2
2021/12/14 00:01:55;;;;;;;1999.90;999.90;;;0.60;99.90;;;;;;4976594;28;20027;-79
2021/12/14 00:04:30;;;;;;;1999.90;999.90;;;0.60;99.90;;;;;;4991596;28;20030;-78
2021/12/14 00:06:58;;;;;;;1999.90;999.90;;;0.50;99.90;;;;;;4991704;28;20065;-79
2021/12/14 00:09:34;;;;;;;1999.90;999.90;;;0.50;99.90;;;;;;4975303;28;20045;-78
2021/12/14 00:17:30;;;;;;;1999.90;999.90;;;0.50;99.90;;;;;;4975862;28;20039;-79
2021/12/14 00:19:59;;;;;;;1999.90;999.90;;;0.60;99.90;;;;;;4990747;28;20463;-79
2021/12/14 00:24:53;;;;;;;1999.90;999.90;;;0.60;99.90;;;;;;4975805;28;20034;-79
2021/12/14 00:27:22;;;;;;;1999.90;999.90;;;0.60;99.90;;;;;;4975581;28;20039;-79
2021/12/14 00:29:52;;;;;;;1999.90;999.90;;;0.60;99.90;;;;;;4990570;28;20493;-80
2021/12/14 00:32:23;;;;;;;1999.90;999.90;;;0.70;99.90;;;;;;4974686;28;20041;-79
2021/12/14 00:34:51;;;;;;;1999.90;999.90;;;0.60;99.90;;;;;;4991055;28;20030;-80
2021/12/14 00:37:33;;;;;;;1999.90;999.90;;;0.60;99.90;;;;;;4976430;28;20027;-80
2021/12/14 00:40:04;;;;;;;1999.90;999.90;;;0.60;99.90;;;;;;4976609;28;20015;-80
2021/12/14 00:42:30;;;;;;;1999.90;999.90;;;0.70;99.90;;;;;;4991436;28;20034;-79
2021/12/14 00:44:56;;;;;;;1999.90;999.90;;;0.60;99.90;;;;;;4991210;28;20485;-81
2021/12/14 00:47:22;;;;;;;1999.90;999.90;;;0.60;99.90;;;;;;4992756;28;20034;-80
2021/12/14 00:49:48;;;;;;;1999.90;999.90;;;0.60;99.90;;;;;;4983503;28;20127;-80
2021/12/14 00:52:14;;;;;;;1999.90;999.90;;;0.60;99.90;;;;;;4979077;28;20026;-81
2021/12/14 00:54:41;;;;;;;1999.90;999.90;;;0.60;99.90;;;;;;4991801;28;20502;-80
2021/12/14 00:57:08;;;;;;;1999.90;999.90;;;0.60;99.90;;;;;;4991103;28;20038;-80
2021/12/14 00:59:34;;;;;;;1999.90;999.90;;;0.60;99.90;;;;;;4990618;28;20038;-81
2021/12/14 01:02:11;;;;;;;1999.90;999.90;;;0.60;99.90;;;;;;4974971;28;20022;-80
2021/12/14 01:05:00;;;;;;;1999.90;999.90;;;0.50;99.90;;;;;;4991343;28;20062;-80
2021/12/14 01:07:29;;;;;;;1999.90;999.90;;;0.50;99.90;;;;;;4976216;28;20042;-79
2021/12/14 01:09:59;;;;;;;1999.90;999.90;;;0.50;99.90;;;;;;4975673;28;20038;-81
2021/12/14 01:12:38;;;;;;;1999.90;999.90;;;0.50;99.90;;;;;;4990722;28;20026;-79
2021/12/14 01:15:32;;;;;;;1999.90;999.90;;;0.50;99.90;;;;;;4975644;28;20059;-82
2021/12/14 01:18:28;;;;;;;1999.90;999.90;;;0.50;99.90;;;;;;4990619;28;20027;-79
2021/12/14 01:21:00;;;;;;;1999.90;999.90;;;0.40;99.90;;;;;;4975408;28;20027;-81
2021/12/14 01:23:31;;;;;;;1999.90;999.90;;;0.50;99.90;;;;;;4990203;28;20062;-80
2021/12/14 01:26:03;;;;;;;1999.90;999.90;;;0.40;99.90;;;;;;4974283;28;20038;-81
2021/12/14 01:28:30;;;;;;;1999.90;999.90;;;0.40;99.90;;;;;;4975667;28;20114;-80
2021/12/14 01:31:10;;;;;;;1999.90;999.90;;;0.40;99.90;;;;;;4975877;28;20038;-80
2021/12/14 01:33:38;;;;;;;1999.90;999.90;;;0.40;99.90;;;;;;4990711;28;20027;-79
2021/12/14 01:36:20;;;;;;;1999.90;999.90;;;0.40;99.90;;;;;;4990346;28;20042;-79
2021/12/14 01:38:58;;;;;;;1999.90;999.90;;;0.30;99.90;;;;;;4975558;28;20027;-79
2021/12/14 01:41:24;;;;;;;1999.90;999.90;;;0.20;99.90;;;;;;4990397;28;20054;-80
2021/12/14 01:43:56;;;;;;;1999.90;999.90;;;0.30;99.90;;;;;;4990290;28;20073;-81
2021/12/14 01:46:27;;;;;;;1999.90;999.90;;;0.30;99.90;;;;;;4990377;28;20023;-79
2021/12/14 01:48:54;;;;;;;1999.90;999.90;;;0.20;99.90;;;;;;4974394;28;20036;-81
2021/12/14 01:51:21;;;;;;;1999.90;999.90;;;0.20;99.90;;;;;;4975266;28;20042;-79
2021/12/14 01:53:49;;;;;;;1999.90;999.90;;;0.30;99.90;;;;;;4990373;28;20026;-80
2021/12/14 01:56:18;;;;;;;1999.90;999.90;;;0.20;99.90;;;;;;4990174;28;20023;-79
2021/12/14 01:58:49;;;;;;;1999.90;999.90;;;0.40;99.90;;;;;;4990185;28;20023;-81
2021/12/14 02:01:25;;;;;;;1999.90;999.90;;;0.30;99.90;;;;;;4990291;28;20117;-83
2021/12/14 02:03:59;;;;;;;1999.90;999.90;;;0.30;99.90;;;;;;4975064;28;20026;-81
2021/12/14 02:06:29;;;;;;;1999.90;999.90;;;0.40;99.90;;;;;;4973915;28;20037;-82
2021/12/14 02:09:03;;;;;;;1999.90;999.90;;;0.30;99.90;;;;;;4975111;28;20453;-80
2021/12/14 02:11:46;;;;;;;1999.90;999.90;;;0.40;99.90;;;;;;4989086;28;20386;-80
2021/12/14 02:14:13;;;;;;;1999.90;999.90;;;0.30;99.90;;;;;;4974784;28;20077;-81
2021/12/14 02:16:40;;;;;;;1999.90;999.90;;;0.20;99.90;;;;;;4989744;28;20057;-80
2021/12/14 02:19:13;;;;;;;1999.90;999.90;;;0.20;99.90;;;;;;4974889;28;20030;-79
2021/12/14 02:21:41;;;;;;;1999.90;999.90;;;0.20;99.90;;;;;;4989625;28;20062;-82
2021/12/14 02:24:08;;;;;;;1999.90;999.90;;;0.10;99.90;;;;;;4989629;28;20493;-80
2021/12/14 02:26:37;;;;;;;1999.90;999.90;;;0.30;99.90;;;;;;4973989;28;20088;-79
2021/12/14 02:29:07;;;;;;;1999.90;999.90;;;0.30;99.90;;;;;;4990160;28;20121;-80
2021/12/14 02:31:37;;;;;;;1999.90;999.90;;;0.20;99.90;;;;;;4974848;28;20035;-79
2021/12/14 02:34:05;;;;;;;1999.90;999.90;;;0.20;99.90;;;;;;4991191;28;20042;-80
2021/12/14 02:36:34;;;;;;;1999.90;999.90;;;0.20;99.90;;;;;;4982641;28;20046;-81
2021/12/14 02:39:11;;;;;;;1999.90;999.90;;;0.20;99.90;;;;;;4992290;28;20023;-81
2021/12/14 02:41:46;;;;;;;1999.90;999.90;;;0.20;99.90;;;;;;4989895;28;20063;-79
2021/12/14 02:44:14;;;;;;;1999.90;999.90;;;0.10;99.90;;;;;;4989585;28;20019;-80
2021/12/14 02:46:44;;;;;;;1999.90;999.90;;;0.10;99.90;;;;;;4989359;28;20035;-79
2021/12/14 02:49:13;;;;;;;1999.90;999.90;;;0.10;99.90;;;;;;4989263;28;20044;-80
2021/12/14 02:51:42;;;;;;;1999.90;999.90;;;0.10;99.90;;;;;;4989635;28;20061;-80
2021/12/14 02:54:17;;;;;;;1999.90;999.90;;;0.10;99.90;;;;;;4989368;28;20019;-79
2021/12/14 02:56:47;;;;;;;1999.90;999.90;;;0.10;99.90;;;;;;4988808;28;20050;-80
2021/12/14 02:59:28;;;;;;;1999.90;999.90;;;0.10;99.90;;;;;;4989276;28;20038;-79
2021/12/14 03:01:56;;;;;;;1999.90;999.90;;;0.10;99.90;;;;;;4988725;28;20030;-79
2021/12/14 03:04:23;;;;;;;1999.90;999.90;;;0.10;99.90;;;;;;4974205;28;20030;-80
2021/12/14 03:06:55;;;;;;;1999.90;999.90;;;0.20;99.90;;;;;;4988861;28;20034;-80
2021/12/14 03:12:03;;;;;;;1999.90;999.90;;;0.20;99.90;;;;;;4974416;28;20027;-80
2021/12/14 03:14:30;;;;;;;1999.90;999.90;;;0.10;99.90;;;;;;4989260;28;20066;-79
2021/12/14 03:16:55;;;;;;;1999.90;999.90;;;0.20;99.90;;;;;;4973954;28;20463;-79
2021/12/14 03:19:21;;;;;;;1999.90;999.90;;;0.10;99.90;;;;;;4974274;28;20022;-81
2021/12/14 03:21:49;;;;;;;1999.90;999.90;;;0.10;99.90;;;;;;4990339;28;20093;-81
2021/12/14 03:24:16;;;;;;;1999.90;999.90;;;0.20;99.90;;;;;;4976546;28;20141;-81
2021/12/14 03:26:51;;;;;;;1999.90;999.90;;;0.10;99.90;;;;;;4992755;28;20035;-80
2021/12/14 03:29:21;;;;;;;1999.90;999.90;;;0.20;99.90;;;;;;4992617;28;20031;-80
2021/12/14 03:31:50;;;;;;;1999.90;999.90;;;0.20;99.90;;;;;;4992732;28;20149;-79
2021/12/14 03:34:37;;;;;;;1999.90;999.90;;;0.30;99.90;;;;;;4992402;28;20027;-82
2021/12/14 03:37:19;;;;;;;1999.90;999.90;;;0.30;99.90;;;;;;4975966;28;20039;-79
2021/12/14 03:39:48;;;;;;;1999.90;999.90;;;0.40;99.90;;;;;;4977863;28;20105;-81
2021/12/14 03:42:25;;;;;;;1999.90;999.90;;;0.30;99.90;;;;;;4992408;28;20077;-80
2021/12/14 03:44:57;;;;;;;1999.90;999.90;;;0.30;99.90;;;;;;4976218;28;20026;-80
2021/12/14 03:47:34;;;;;;;1999.90;999.90;;;0.30;99.90;;;;;;4977095;28;20023;-80
2021/12/14 03:50:10;;;;;;;1999.90;999.90;;;0.30;99.90;;;;;;4992165;28;20061;-80
2021/12/14 03:52:38;;;;;;;1999.90;999.90;;;0.40;99.90;;;;;;4992257;28;20483;-80
2021/12/14 03:55:10;;;;;;;1999.90;999.90;;;0.30;99.90;;;;;;4977220;28;20026;-80
2021/12/14 03:57:37;;;;;;;1999.90;999.90;;;0.30;99.90;;;;;;4992206;28;20069;-80
2021/12/14 04:00:10;;;;;;;1999.90;999.90;;;0.30;99.90;;;;;;4992353;28;20049;-80
2021/12/14 04:02:35;;;;;;;1999.90;999.90;;;0.30;99.90;;;;;;4992428;28;20031;-80
2021/12/14 04:05:10;;;;;;;1999.90;999.90;;;0.40;99.90;;;;;;4992526;28;20127;-82
2021/12/14 04:07:38;;;;;;;1999.90;999.90;;;0.40;99.90;;;;;;4991879;28;20026;-80
2021/12/14 04:10:21;;;;;;;1999.90;999.90;;;0.40;99.90;;;;;;4992212;28;20509;-79
2021/12/14 04:12:47;;;;;;;1999.90;999.90;;;0.30;99.90;;;;;;4991961;28;20019;-81
2021/12/14 04:15:13;;;;;;;1999.90;999.90;;;0.30;99.90;;;;;;4991876;28;20118;-80
2021/12/14 04:17:39;;;;;;;1999.90;999.90;;;0.30;99.90;;;;;;4976710;28;20023;-80
2021/12/14 04:20:15;;;;;;;1999.90;999.90;;;0.40;99.90;;;;;;4993711;28;20030;-80
2021/12/14 04:22:48;;;;;;;1999.90;999.90;;;0.40;99.90;;;;;;4985617;28;20066;-82
2021/12/14 04:25:19;;;;;;;1999.90;999.90;;;0.40;99.90;;;;;;4992910;28;20026;-83
2021/12/14 04:27:46;;;;;;;1999.90;999.90;;;0.40;99.90;;;;;;4977259;28;20027;-81
2021/12/14 04:30:17;;;;;;;1999.90;999.90;;;0.40;99.90;;;;;;4991347;28;20034;-80
2021/12/14 04:32:50;;;;;;;1999.90;999.90;;;0.30;99.90;;;;;;4974169;28;20074;-80
2021/12/14 04:35:17;;;;;;;1999.90;999.90;;;0.40;99.90;;;;;;4976080;28;20023;-79
2021/12/14 04:37:48;;;;;;;1999.90;999.90;;;0.30;99.90;;;;;;4974958;28;20054;-80
2021/12/14 04:51:53;;;;;;;1999.90;999.90;;;0.40;99.90;;;;;;4990846;28;20022;-78
2021/12/14 04:54:20;;;;;;;1999.90;999.90;;;0.50;99.90;;;;;;4975960;28;20038;-80
2021/12/14 04:56:46;;;;;;;1999.90;999.90;;;0.50;99.90;;;;;;4990601;28;20023;-79
2021/12/14 04:59:22;;;;;;;1999.90;999.90;;;0.40;99.90;;;;;;4975585;28;20439;-79
2021/12/14 05:01:49;;;;;;;1999.90;999.90;;;0.40;99.90;;;;;;4974495;28;20023;-79
2021/12/14 05:04:19;;;;;;;1999.90;999.90;;;0.40;99.90;;;;;;4975433;28;20059;-79
2021/12/14 05:06:56;;;;;;;1999.90;999.90;;;0.40;99.90;;;;;;4990509;28;20085;-80
2021/12/14 05:09:29;;;;;;;1999.90;999.90;;;0.50;99.90;;;;;;4990462;28;20034;-79
2021/12/14 05:12:08;;;;;;;1999.90;999.90;;;0.40;99.90;;;;;;4975154;28;20034;-80
2021/12/14 05:14:36;;;;;;;1999.90;999.90;;;0.40;99.90;;;;;;4990111;28;20031;-78
2021/12/14 05:17:06;;;;;;;1999.90;999.90;;;0.50;99.90;;;;;;4975288;28;20031;-79
2021/12/14 05:19:35;;;;;;;1999.90;999.90;;;0.60;99.90;;;;;;4975222;28;20034;-78
2021/12/14 05:22:23;;;;;;;1999.90;999.90;;;0.60;99.90;;;;;;4990232;28;20035;-79
2021/12/14 05:25:00;;;;;;;1999.90;999.90;;;0.60;99.90;;;;;;4990279;28;20043;-80
2021/12/14 05:27:32;;;;;;;1999.90;999.90;;;0.60;99.90;;;;;;4990071;28;20038;-79
2021/12/14 05:30:10;;;;;;;1999.90;999.90;;;0.70;99.90;;;;;;4990060;28;20043;-80
2021/12/14 05:32:37;;;;;;;1999.90;999.90;;;0.60;99.90;;;;;;4975034;28;20034;-78
2021/12/14 05:35:04;;;;;;;1999.90;999.90;;;0.60;99.90;;;;;;4974808;28;20054;-79
2021/12/14 05:37:34;;;;;;;1999.90;999.90;;;0.70;99.90;;;;;;4990124;28;20027;-80
2021/12/14 05:40:04;;;;;;;1999.90;999.90;;;0.70;99.90;;;;;;4989434;28;20549;-80
2021/12/14 05:45:21;;;;;;;1999.90;999.90;;;0.80;99.90;;;;;;4974858;28;20375;-79
2021/12/14 05:47:50;;;;;;;1999.90;999.90;;;0.70;99.90;;;;;;4990195;28;20041;-79
2021/12/14 05:50:20;;;;;;;1999.90;999.90;;;0.70;99.90;;;;;;4989658;28;20049;-79
2021/12/14 05:52:46;;;;;;;1999.90;999.90;;;0.70;99.90;;;;;;4989985;28;20030;-79
2021/12/14 05:55:14;;;;;;;1999.90;999.90;;;0.70;99.90;;;;;;4989024;28;20026;-79
2021/12/14 05:57:40;;;;;;;1999.90;999.90;;;0.80;99.90;;;;;;4989815;28;20035;-80
2021/12/14 06:00:11;;;;;;;1999.90;999.90;;;0.70;99.90;;;;;;4974516;28;20086;-77
2021/12/14 06:02:37;;;;;;;1999.90;999.90;;;0.70;99.90;;;;;;4973761;28;20406;-79
2021/12/14 06:05:04;;;;;;;1999.90;999.90;;;0.70;99.90;;;;;;4990343;28;20475;-79
2021/12/14 06:07:30;;;;;;;1999.90;999.90;;;0.70;99.90;;;;;;4996100;28;20023;-81
2021/12/14 06:09:56;;;;;;;1999.90;999.90;;;0.70;99.90;;;;;;4993174;28;20049;-82
2021/12/14 06:12:29;;;;;;;1999.90;999.90;;;0.60;99.90;;;;;;4974402;28;20422;-81
2021/12/14 06:14:59;;;;;;;1999.90;999.90;;;0.60;99.90;;;;;;4989191;28;20483;-80
2021/12/14 06:17:29;;;;;;;1999.90;999.90;;;0.60;99.90;;;;;;4989283;28;20121;-82
2021/12/14 06:20:03;;;;;;;1999.90;999.90;;;0.60;99.90;;;;;;4972998;28;20022;-79
2021/12/14 06:22:29;;;;;;;1999.90;999.90;;;0.60;99.90;;;;;;4988967;28;20037;-79
2021/12/14 06:24:59;;;;;;;1999.90;999.90;;;0.60;99.90;;;;;;4991064;28;20118;-81
2021/12/14 06:27:28;;;;;;;1999.90;999.90;;;0.70;99.90;;;;;;4989817;28;20023;-79
2021/12/14 06:30:05;;;;;;;1999.90;999.90;;;0.60;99.90;;;;;;4973866;28;20039;-79
2021/12/14 06:32:38;;;;;;;1999.90;999.90;;;1.00;99.90;;;;;;4989360;28;20031;-81
2021/12/14 06:35:18;;;;;;;1999.90;999.90;;;0.90;99.90;;;;;;4991362;28;20027;-80
2021/12/14 06:40:43;;;;;;;1999.90;999.90;;;0.70;99.90;;;;;;4974900;28;20525;-79
2021/12/14 06:43:19;;;;;;;1999.90;999.90;;;0.70;99.90;;;;;;4989442;28;20043;-78
2021/12/14 06:45:48;;;;;;;1999.90;999.90;;;0.60;99.90;;;;;;4989832;28;20409;-80
2021/12/14 06:48:20;;;;;;;1999.90;999.90;;;0.60;99.90;;;;;;4989531;28;20030;-81
2021/12/14 06:50:58;;;;;;;1999.90;999.90;;;0.60;99.90;;;;;;4985777;28;20041;-82
2021/12/14 06:53:24;;;;;;;1999.90;999.90;;;0.60;99.90;;;;;;4989988;28;20027;-80
2021/12/14 06:55:56;;;;;;;1999.90;999.90;;;0.60;99.90;;;;;;4989805;28;20042;-79
2021/12/14 06:58:25;;;;;;;1999.90;999.90;;;0.70;99.90;;;;;;4978837;28;20022;-78
2021/12/14 07:01:07;;;;;;;1999.90;999.90;;;0.70;99.90;;;;;;4978247;28;20058;-80
2021/12/14 07:03:44;;;;;;;1999.90;999.90;;;0.70;99.90;;;;;;4993542;28;20026;-80
2021/12/14 07:06:35;;;;;;;1999.90;999.90;;;0.90;99.90;;;;;;4993616;28;20117;-80
2021/12/14 07:09:18;;;;;;;1999.90;999.90;;;0.90;99.90;;;;;;4993749;28;20027;-80
2021/12/14 07:12:04;;;;;;;1999.90;999.90;;;0.90;99.90;;;;;;4978151;28;20034;-80
2021/12/14 07:14:43;;;;;;;1999.90;999.90;;;0.90;99.90;;;;;;4993533;28;20026;-80
2021/12/14 07:17:27;;;;;;;1999.90;999.90;;;1.00;99.90;;;;;;4993351;28;20035;-79
2021/12/14 07:19:56;;;;;;;1999.90;999.90;;;1.00;99.90;;;;;;4993508;28;20031;-80
2021/12/14 07:22:25;;;;;;;1999.90;999.90;;;1.00;99.90;;;;;;4978261;28;20491;-80
2021/12/14 07:25:06;;;;;;;1999.90;999.90;;;1.10;99.90;;;;;;4993033;28;20038;-79
2021/12/14 07:27:50;;;;;;;1999.90;999.90;;;1.20;99.90;;;;;;4993457;28;20486;-79
2021/12/14 07:30:18;;;;;;;1999.90;999.90;;;1.20;99.90;;;;;;4994581;28;20581;-80
2021/12/14 07:32:47;;;;;;;1999.90;999.90;;;1.20;99.90;;;;;;4977970;28;20030;-81
2021/12/14 07:35:37;;;;;;;1999.90;999.90;;;1.30;99.90;;;;;;4993985;28;20434;-81
2021/12/14 07:38:25;;;;;;;1999.90;999.90;;;1.40;99.90;;;;;;4992781;28;20023;-79
2021/12/14 07:41:04;;;;;;;1999.90;999.90;;;1.40;99.90;;;;;;4977487;28;20027;-82
2021/12/14 07:43:35;;;;;;;1999.90;999.90;;;1.50;99.90;;;;;;4992631;28;20065;-79
2021/12/14 07:46:01;;;;;;;1999.90;999.90;;;1.40;99.90;;;;;;4992962;28;20027;-82
2021/12/14 07:48:48;;;;;;;1999.90;999.90;;;1.40;99.90;;;;;;4977523;28;20085;-80
2021/12/14 07:51:15;;;;;;;1999.90;999.90;;;1.40;99.90;;;;;;4992361;28;20039;-81
2021/12/14 07:53:48;;;;;;;1999.90;999.90;;;1.50;99.90;;;;;;4992655;28;20023;-80
2021/12/14 07:56:35;;;;;;;1999.90;999.90;;;1.40;99.90;;;;;;5001010;28;20070;-81
2021/12/14 07:59:02;;;;;;;1999.90;999.90;;;1.50;99.90;;;;;;4995074;28;20037;-81
2021/12/14 08:01:28;;;;;;;1999.90;999.90;;;1.50;99.90;;;;;;4976252;28;20022;-83
2021/12/14 08:04:07;;;;;;;1999.90;999.90;;;1.50;99.90;;;;;;4975788;28;20033;-81
2021/12/14 08:06:49;;;;;;;1999.90;999.90;;;1.60;99.90;;;;;;4991677;28;20054;-81
2021/12/14 08:09:34;;;;;;;1999.90;999.90;;;1.70;99.90;;;;;;4992541;28;20035;-79
2021/12/14 08:12:02;;;;;;;1999.90;999.90;;;1.70;99.90;;;;;;4976908;28;20123;-81
2021/12/14 08:14:28;;;;;;;1999.90;999.90;;;1.80;99.90;;;;;;4975036;28;20382;-81
2021/12/14 08:17:03;;;;;;;1999.90;999.90;;;1.80;99.90;;;;;;4991459;28;20459;-79
2021/12/14 08:19:42;;;;;;;1999.90;999.90;;;1.90;99.90;;;;;;4991460;28;20042;-80
2021/12/14 08:22:26;;;;;;;1999.90;999.90;;;1.90;99.90;;;;;;4991358;28;20026;-80
2021/12/14 08:24:52;;;;;;;1999.90;999.90;;;1.90;99.90;;;;;;4991401;28;20035;-82
2021/12/14 08:27:21;;;;;;;1999.90;999.90;;;2.00;99.90;;;;;;4976501;28;20019;-81
2021/12/14 08:29:54;;;;;;;1999.90;999.90;;;2.10;99.90;;;;;;4976302;28;20031;-79
2021/12/14 08:32:24;;;;;;;1999.90;999.90;;;2.10;99.90;;;;;;4991372;28;20058;-79
2021/12/14 08:34:53;;;;;;;1999.90;999.90;;;2.20;99.90;;;;;;4975406;28;20023;-79
2021/12/14 08:37:20;;;;;;;1999.90;999.90;;;2.20;99.90;;;;;;4992192;28;20035;-80
2021/12/14 08:39:51;;;;;;;1999.90;999.90;;;3.30;99.90;;;;;;4976262;28;20018;-79
2021/12/14 08:42:22;;;;;;;1999.90;999.90;;;3.10;99.90;;;;;;4992467;28;20027;-83
2021/12/14 08:44:55;;;;;;;1999.90;999.90;;;3.00;99.90;;;;;;4992693;28;20100;-84
2021/12/14 08:47:41;;;;;;;1999.90;999.90;;;2.90;99.90;;;;;;4996942;28;20026;-80
2021/12/14 08:50:12;;;;;;;1999.90;999.90;;;2.80;99.90;;;;;;4991696;28;20034;-79
2021/12/14 08:52:40;;;;;;;1999.90;999.90;;;2.80;99.90;;;;;;4991256;28;20027;-79
2021/12/14 08:55:10;;;;;;;1999.90;999.90;;;2.70;99.90;;;;;;4990885;28;20482;-82
2021/12/14 08:57:37;;;;;;;1999.90;999.90;;;2.60;99.90;;;;;;4975271;28;20023;-81
2021/12/14 09:00:36;;;;;;;1999.90;999.90;;;2.70;99.90;;;;;;4977044;28;20459;-83
2021/12/14 09:03:05;;;;;;;1999.90;999.90;;;2.70;99.90;;;;;;4975768;28;20027;-78
2021/12/14 09:05:42;;;;;;;1999.90;999.90;;;3.50;99.90;;;;;;4989851;28;20034;-81
2021/12/14 09:08:08;;;;;;;1999.90;999.90;;;4.30;99.90;;;;;;4990094;28;20030;-79
2021/12/14 09:10:38;;;;;;;1999.90;999.90;;;4.60;99.90;;;;;;4975040;28;20042;-79
2021/12/14 09:13:07;;;;;;;1999.90;999.90;;;4.90;99.90;;;;;;4974670;28;20119;-81
2021/12/14 09:15:41;;;;;;;1999.90;999.90;;;5.00;99.90;;;;;;4975975;28;20026;-81
2021/12/14 09:18:11;;;;;;;1999.90;999.90;;;4.90;99.90;;;;;;4993979;28;20054;-83
2021/12/14 09:20:45;;;;;;;1999.90;999.90;;;4.70;99.90;;;;;;4978643;28;20038;-80
2021/12/14 09:23:15;;;;;;;1999.90;999.90;;;4.50;99.90;;;;;;4980374;28;20078;-80
2021/12/14 09:25:43;;;;;;;1999.90;999.90;;;4.20;99.90;;;;;;4994693;28;20505;-81
2021/12/14 09:28:09;;;;;;;1999.90;999.90;;;4.10;99.90;;;;;;4978396;28;20371;-81
2021/12/14 09:30:42;;;;;;;1999.90;999.90;;;4.00;99.90;;;;;;4995898;28;20045;-79
2021/12/14 09:33:09;;;;;;;1999.90;999.90;;;3.80;99.90;;;;;;4979309;28;20026;-82
2021/12/14 09:35:36;;;;;;;1999.90;999.90;;;3.80;99.90;;;;;;4976593;28;20042;-82
2021/12/14 09:38:07;;;;;;;1999.90;999.90;;;3.80;99.90;;;;;;4975361;28;20030;-83
2021/12/14 09:40:44;;;;;;;1999.90;999.90;;;3.80;99.90;;;;;;4976188;28;20039;-81
2021/12/14 09:43:10;;;;;;;1999.90;999.90;;;3.70;99.90;;;;;;4976023;28;20026;-82
2021/12/14 09:45:44;;;;;;;1999.90;999.90;;;3.70;99.90;;;;;;4975802;28;20030;-82
2021/12/14 09:48:18;;;;;;;1999.90;999.90;;;3.70;99.90;;;;;;4978847;28;20031;-83
2021/12/14 09:50:46;;;;;;;1999.90;999.90;;;3.70;99.90;;;;;;5001246;28;20041;-83
2021/12/14 09:53:17;;;;;;;1999.90;999.90;;;3.70;99.90;;;;;;4975628;28;20027;-82
2021/12/14 09:55:46;;;;;;;1999.90;999.90;;;3.90;99.90;;;;;;4990750;28;20034;-82
2021/12/14 09:58:24;;;;;;;1999.90;999.90;;;4.00;99.90;;;;;;4974967;28;20438;-84
2021/12/14 10:01:13;;;;;;;1999.90;999.90;;;4.00;99.90;;;;;;4975525;28;20030;-86
2021/12/14 10:03:40;;;;;;;1999.90;999.90;;;4.00;99.90;;;;;;4980036;28;20034;-84
2021/12/14 10:06:12;;;;;;;1999.90;999.90;;;4.00;99.90;;;;;;4974652;28;20549;-81
2021/12/14 10:08:43;;;;;;;1999.90;999.90;;;3.90;99.90;;;;;;4990323;28;20027;-81
2021/12/14 10:11:24;;;;;;;1999.90;999.90;;;3.90;99.90;;;;;;4991651;28;20066;-84
2021/12/14 10:13:51;;;;;;;1999.90;999.90;;;3.70;99.90;;;;;;4990206;28;20030;-82
2021/12/14 10:16:17;;;;;;;1999.90;999.90;;;3.70;99.90;;;;;;4975165;28;20034;-84
2021/12/14 10:18:54;;;;;;;1999.90;999.90;;;3.80;99.90;;;;;;4990486;28;20031;-80
2021/12/14 10:21:36;;;;;;;1999.90;999.90;;;3.80;99.90;;;;;;4990061;28;20031;-84
2021/12/14 10:24:04;;;;;;;1999.90;999.90;;;3.80;99.90;;;;;;4990103;28;20109;-81
2021/12/14 10:26:32;;;;;;;1999.90;999.90;;;3.80;99.90;;;;;;4989973;28;20027;-81
2021/12/14 10:29:00;;;;;;;1999.90;999.90;;;3.90;99.90;;;;;;4990323;28;20370;-85
2021/12/14 10:31:51;;;;;;;1999.90;999.90;;;4.00;99.90;;;;;;4974076;28;20038;-84
2021/12/14 10:34:25;;;;;;;1999.90;999.90;;;4.10;99.90;;;;;;4970302;28;20031;-84
2021/12/14 10:37:05;;;;;;;1999.90;999.90;;;4.20;99.90;;;;;;4990965;28;20030;-83
2021/12/14 10:44:52;;;;;;;1999.90;999.90;;;4.20;99.90;;;;;;4976806;28;20107;-84
2021/12/14 10:47:21;;;;;;;1999.90;999.90;;;4.40;99.90;;;;;;4974296;28;20049;-82
2021/12/14 10:49:48;;;;;;;1999.90;999.90;;;4.50;99.90;;;;;;4975679;28;20030;-84
2021/12/14 10:52:18;;;;;;;1999.90;999.90;;;4.70;99.90;;;;;;4975200;28;20034;-83
2021/12/14 10:54:56;;;;;;;1999.90;999.90;;;4.80;99.90;;;;;;4990249;28;20037;-79
2021/12/14 10:57:27;;;;;;;1999.90;999.90;;;4.80;99.90;;;;;;4989937;28;20035;-82
2021/12/14 10:59:55;;;;;;;1999.90;999.90;;;4.70;99.90;;;;;;4990043;28;20035;-80
2021/12/14 11:02:24;;;;;;;1999.90;999.90;;;4.80;99.90;;;;;;4975049;28;20046;-82
2021/12/14 11:04:56;;;;;;;1999.90;999.90;;;5.00;99.90;;;;;;4990042;28;20037;-85
2021/12/14 11:07:37;;;;;;;1999.90;999.90;;;5.10;99.90;;;;;;4973662;28;20058;-81
2021/12/14 11:10:17;;;;;;;1999.90;999.90;;;5.20;99.90;;;;;;4992888;28;20031;-81
2021/12/14 11:12:50;;;;;;;1999.90;999.90;;;5.70;99.90;;;;;;4973546;28;20031;-80
2021/12/14 11:15:34;;;;;;;1999.90;999.90;;;6.20;99.90;;;;;;4988935;28;20023;-80
2021/12/14 11:18:13;;;;;;;1999.90;999.90;;;6.20;99.90;;;;;;4974516;28;20026;-86
2021/12/14 11:20:59;;;;;;;1999.90;999.90;;;6.20;99.90;;;;;;4974685;28;20057;-86
2021/12/14 11:23:29;;;;;;;;;;;6.20;99.90;;;;;;4990432;28;20129;-84
2021/12/14 11:26:16;;;;;;;1999.90;999.90;;;6.20;99.90;;;;;;4973482;28;19906;-84
2021/12/14 11:28:58;;;;;;;1999.90;999.90;;;6.20;99.90;;;;;;4990178;28;20478;-86
2021/12/14 11:31:30;;;;;;;1999.90;999.90;;;6.10;99.90;;;;;;4990195;28;20039;-84
2021/12/14 11:34:00;;;;;;;1999.90;999.90;;;6.00;99.90;;;;;;4974898;28;20019;-83
2021/12/14 11:36:32;;;;;;;1999.90;999.90;;;6.10;99.90;;;;;;4973574;28;20051;-86
2021/12/14 11:39:06;;;;;;;1999.90;999.90;;;6.00;99.90;;;;;;4990277;28;20122;-83
2021/12/14 11:41:48;;;;;;;1999.90;999.90;;;6.10;99.90;;;;;;4990096;28;20106;-83
2021/12/14 11:44:20;;;;;;;1999.90;999.90;;;6.00;99.90;;;;;;5004677;28;20038;-84
2021/12/14 11:47:22;;;;;;;1999.90;999.90;;;6.00;99.90;;;;;;4994917;28;20027;-85
2021/12/14 11:49:51;;;;;;;1999.90;999.90;;;6.00;99.90;;;;;;4971279;28;20030;-83
2021/12/14 11:52:35;;;;;;;1999.90;999.90;;;6.00;99.90;;;;;;4992565;28;20402;-81
2021/12/14 11:55:28;;;;;;;1999.90;999.90;;;6.00;99.90;;;;;;4977824;28;20058;-80
2021/12/14 11:58:11;;;;;;;1999.90;999.90;;;6.00;99.90;;;;;;4993414;28;20113;-83
2021/12/14 12:01:00;;;;;;;1999.90;999.90;;;6.00;99.90;;;;;;4994125;28;20034;-83
2021/12/14 12:03:53;;;;;;;1999.90;999.90;;;6.00;99.90;;;;;;4993816;28;20471;-87
2021/12/14 12:09:35;;;;;;;1999.90;999.90;;;5.90;99.90;;;;;;4978342;28;20035;-85
2021/12/14 12:12:00;;;;;;;1999.90;999.90;;;5.90;99.90;;;;;;4978678;28;20030;-85
2021/12/14 12:14:30;;;;;;;1999.90;999.90;;;5.90;99.90;;;;;;4993934;28;20031;-83
2021/12/14 12:17:07;;;;;;;1999.90;999.90;;;5.90;99.90;;;;;;4978607;28;20105;-85
2021/12/14 12:19:33;;;;;;;1999.90;999.90;;;5.90;99.90;;;;;;4977532;28;20066;-81
2021/12/14 12:22:09;;;;;;;1999.90;999.90;;;5.90;99.90;;;;;;4977146;28;20034;-82
2021/12/14 12:24:45;;;;;;;1999.90;999.90;;;6.00;99.90;;;;;;4978838;28;20066;-86
2021/12/14 12:27:34;;;;;;;1999.90;999.90;;;6.00;99.90;;;;;;4995208;28;20035;-84
2021/12/14 12:30:38;;;;;;;1999.90;999.90;;;6.00;99.90;;;;;;4994864;28;20039;-83
2021/12/14 12:33:30;;;;;;;1999.90;999.90;;;6.00;99.90;;;;;;4975659;28;20536;-84
2021/12/14 12:36:19;;;;;;;1999.90;999.90;;;6.00;99.90;;;;;;4978435;28;20415;-85
2021/12/14 12:39:21;;;;;;;1999.90;999.90;;;6.00;99.90;;;;;;4978496;28;20019;-85
2021/12/14 12:41:52;;;;;;;1999.90;999.90;;;6.10;99.90;;;;;;4979839;28;20054;-86
2021/12/14 12:44:19;;;;;;;1999.90;999.90;;;6.00;99.90;;;;;;4977383;28;20022;-81
2021/12/14 12:46:56;;;;;;;1999.90;999.90;;;6.00;99.90;;;;;;4994252;28;20031;-85
2021/12/14 12:49:41;;;;;;;1999.90;999.90;;;6.00;99.90;;;;;;4979002;28;20037;-81
2021/12/14 12:52:19;;;;;;;1999.90;999.90;;;6.00;99.90;;;;;;4993559;28;20039;-83
2021/12/14 12:54:53;;;;;;;1999.90;999.90;;;5.90;99.90;;;;;;4979219;28;20102;-86
2021/12/14 12:57:53;;;;;;;1999.90;999.90;;;5.80;99.90;;;;;;4977693;28;20506;-84
2021/12/14 13:00:34;;;;;;;1999.90;999.90;;;5.70;99.90;;;;;;4994129;28;20027;-82
2021/12/14 13:03:16;;;;;;;1999.90;999.90;;;5.60;99.90;;;;;;4993493;28;20027;-83
2021/12/14 13:05:55;;;;;;;1999.90;999.90;;;5.50;99.90;;;;;;4978078;28;20022;-86
2021/12/14 13:08:25;;;;;;;1999.90;999.90;;;5.50;99.90;;;;;;4991902;28;20494;-82
2021/12/14 13:10:54;;;;;;;1999.90;999.90;;;5.40;99.90;;;;;;4992986;28;20463;-84
2021/12/14 13:13:30;;;;;;;1999.90;999.90;;;5.40;99.90;;;;;;4992384;28;20086;-83
2021/12/14 13:16:24;;;;;;;1999.90;999.90;;;5.30;99.90;;;;;;4977411;28;20034;-85